Time;durP1;ratioP1;P1;durP2;ratioP2;P2;SDS_P1;SDS_P2;PMS_P1;PMS_P2;Temp;Humidity;BMP_temperature;BMP_pressure;BME280_temperature;BME280_humidity;BME280_pressure;Samples;Min_cycle;Max_cycle;Signal;HPM_P1;HPM_P2
2023/02/22 00:00:18;;;;;;;73.43;32.53;;;;;;;8.05;100.00;100306.72;5074158;28;20449;-68
2023/02/22 00:02:45;;;;;;;78.23;31.77;;;;;;;8.03;100.00;100312.16;5071614;28;20478;-66
2023/02/22 00:05:14;;;;;;;67.47;29.90;;;;;;;8.15;100.00;100299.69;5060265;28;20457;-68
2023/02/22 00:07:41;;;;;;;74.60;31.47;;;;;;;8.04;100.00;100297.03;5068073;28;20912;-68
2023/02/22 00:10:12;;;;;;;80.73;32.30;;;;;;;8.03;100.00;100298.84;5060770;28;20488;-67
2023/02/22 00:12:40;;;;;;;74.53;30.30;;;;;;;8.00;100.00;100292.91;5061517;28;20488;-68
2023/02/22 00:15:08;;;;;;;72.63;30.83;;;;;;;7.94;100.00;100288.09;5076972;28;20464;-67
2023/02/22 00:17:34;;;;;;;65.67;31.00;;;;;;;8.04;100.00;100281.06;5080307;28;20578;-69
2023/02/22 00:20:04;;;;;;;75.10;31.63;;;;;;;8.00;100.00;100282.28;5080540;28;20441;-69
2023/02/22 00:22:31;;;;;;;66.50;28.67;;;;;;;7.95;100.00;100279.13;5080127;28;20490;-67
2023/02/22 00:24:57;;;;;;;68.80;27.80;;;;;;;8.07;100.00;100283.47;5080279;28;20500;-69
2023/02/22 00:27:24;;;;;;;68.70;28.97;;;;;;;8.08;100.00;100280.69;5080537;28;20902;-69
2023/02/22 00:29:55;;;;;;;60.83;28.10;;;;;;;8.21;100.00;100283.22;5080189;28;20475;-67
2023/02/22 00:32:22;;;;;;;63.60;28.27;;;;;;;8.07;100.00;100265.69;5080063;28;20668;-66
2023/02/22 00:34:52;;;;;;;72.30;28.73;;;;;;;8.11;100.00;100272.44;5080281;28;20504;-68
2023/02/22 00:37:19;;;;;;;65.37;27.97;;;;;;;8.07;100.00;100280.81;5080253;28;20480;-68
2023/02/22 00:39:46;;;;;;;70.80;29.80;;;;;;;8.09;100.00;100263.75;5080106;28;20467;-67
2023/02/22 00:42:13;;;;;;;65.67;27.03;;;;;;;8.13;100.00;100268.84;5079204;28;20523;-69
2023/02/22 00:44:40;;;;;;;59.10;26.67;;;;;;;8.11;100.00;100264.47;5078956;28;20513;-69
2023/02/22 00:47:08;;;;;;;61.13;25.23;;;;;;;8.03;100.00;100269.56;5069556;28;20498;-69
2023/02/22 00:49:34;;;;;;;65.20;24.63;;;;;;;8.14;100.00;100258.03;5072786;28;20876;-68
2023/02/22 00:52:01;;;;;;;54.07;24.73;;;;;;;8.11;100.00;100259.13;5079555;28;20471;-69
2023/02/22 00:54:28;;;;;;;55.00;25.43;;;;;;;8.17;100.00;100257.78;5080015;28;20965;-69
2023/02/22 00:56:54;;;;;;;58.63;25.30;;;;;;;8.10;100.00;100257.44;5080591;28;21013;-68
2023/02/22 00:59:21;;;;;;;55.00;24.43;;;;;;;8.07;100.00;100256.84;5077309;28;20476;-68
2023/02/22 01:01:48;;;;;;;62.00;25.30;;;;;;;8.01;100.00;100255.53;5068335;28;20481;-68
2023/02/22 01:04:17;;;;;;;59.20;24.60;;;;;;;8.02;100.00;100259.03;5076352;28;20448;-67
2023/02/22 01:06:43;;;;;;;51.70;25.57;;;;;;;7.88;100.00;100268.13;5072908;28;20472;-68
2023/02/22 01:09:10;;;;;;;54.40;25.23;;;;;;;7.88;100.00;100261.00;5066428;28;20453;-66
2023/02/22 01:11:37;;;;;;;47.07;23.70;;;;;;;7.96;100.00;100259.53;5066041;28;20496;-67
2023/02/22 01:14:03;;;;;;;54.17;23.47;;;;;;;7.95;100.00;100258.69;5082978;28;20450;-68
2023/02/22 01:16:31;;;;;;;48.40;23.33;;;;;;;7.90;100.00;100259.06;5067441;28;20469;-66
2023/02/22 01:19:00;;;;;;;55.23;24.43;;;;;;;7.82;100.00;100248.16;5071750;28;20477;-68
2023/02/22 01:21:28;;;;;;;64.70;24.60;;;;;;;7.85;100.00;100255.91;5065166;28;20488;-68
2023/02/22 01:23:55;;;;;;;45.57;22.10;;;;;;;7.74;100.00;100253.25;5063661;28;20468;-68
2023/02/22 01:26:21;;;;;;;52.80;24.80;;;;;;;7.65;100.00;100246.84;5063557;28;20496;-67
2023/02/22 01:28:48;;;;;;;54.53;23.33;;;;;;;7.56;100.00;100250.25;5074601;28;20480;-68
2023/02/22 01:31:15;;;;;;;50.13;22.67;;;;;;;7.42;100.00;100243.34;5083149;28;20479;-67
2023/02/22 01:33:41;;;;;;;61.00;23.73;;;;;;;7.32;100.00;100237.91;5065948;28;20497;-68
2023/02/22 01:36:10;;;;;;;51.20;21.80;;;;;;;7.23;100.00;100230.66;5074093;28;20480;-68
2023/02/22 01:38:38;;;;;;;52.17;25.03;;;;;;;7.15;100.00;100228.59;5075212;28;20538;-68
2023/02/22 01:41:05;;;;;;;50.07;21.77;;;;;;;7.10;100.00;100236.09;5078653;28;20500;-69
2023/02/22 01:43:32;;;;;;;50.80;22.20;;;;;;;7.06;100.00;100223.97;5067841;28;20502;-69
2023/02/22 01:46:01;;;;;;;50.40;22.97;;;;;;;6.99;100.00;100222.75;5074649;28;20495;-68
2023/02/22 01:48:31;;;;;;;46.23;23.47;;;;;;;6.96;100.00;100217.66;5078488;28;20782;-68
2023/02/22 01:51:01;;;;;;;60.07;23.27;;;;;;;6.89;100.00;100217.31;5083106;28;21138;-69
2023/02/22 01:53:30;;;;;;;47.77;22.50;;;;;;;6.83;100.00;100199.19;5064064;28;20539;-68
2023/02/22 01:55:59;;;;;;;56.73;22.17;;;;;;;6.77;100.00;100210.25;5071712;28;20496;-69
2023/02/22 01:58:27;;;;;;;55.27;21.63;;;;;;;6.71;100.00;100214.25;5082159;28;20464;-67
2023/02/22 02:00:54;;;;;;;53.30;21.27;;;;;;;6.62;100.00;100206.16;5082234;28;20503;-68
2023/02/22 02:03:26;;;;;;;56.93;21.80;;;;;;;6.61;100.00;100197.31;5083118;28;20513;-67
2023/02/22 02:05:54;;;;;;;54.97;22.07;;;;;;;6.55;100.00;100197.78;5059622;28;20457;-69
2023/02/22 02:08:27;;;;;;;53.97;23.30;;;;;;;6.49;100.00;100198.22;5080280;28;20459;-65
2023/02/22 02:10:55;;;;;;;50.10;21.40;;;;;;;6.43;100.00;100198.72;5071584;28;20844;-68
2023/02/22 02:13:24;;;;;;;55.50;21.93;;;;;;;6.42;100.00;100189.88;5063016;28;20471;-67
2023/02/22 02:15:53;;;;;;;53.27;20.37;;;;;;;6.36;100.00;100172.59;5079549;28;20475;-69
2023/02/22 02:18:20;;;;;;;54.50;21.50;;;;;;;6.36;100.00;100193.00;5081931;28;20547;-69
2023/02/22 02:21:03;;;;;;;58.67;21.50;;;;;;;6.35;100.00;100183.34;5074061;28;20466;-68
2023/02/22 02:23:44;;;;;;;54.63;23.10;;;;;;;6.32;100.00;100191.53;5061814;28;20518;-68
2023/02/22 02:26:30;;;;;;;60.37;23.57;;;;;;;6.28;100.00;100184.75;5063212;28;20866;-68
2023/02/22 02:29:33;;;;;;;53.20;21.97;;;;;;;6.27;100.00;100185.72;5082440;28;20466;-69
2023/02/22 02:32:28;;;;;;;53.00;22.23;;;;;;;6.25;100.00;100183.19;5060507;28;20483;-68
2023/02/22 02:34:59;;;;;;;57.10;21.33;;;;;;;6.22;100.00;100175.47;5080458;28;20470;-68
2023/02/22 02:37:33;;;;;;;56.70;21.07;;;;;;;6.22;100.00;100160.38;5078083;28;20483;-67
2023/02/22 02:40:10;;;;;;;53.20;21.47;;;;;;;6.21;100.00;100169.31;5062217;28;20499;-68
2023/02/22 02:42:42;;;;;;;51.87;21.33;;;;;;;6.15;100.00;100166.25;5062686;28;20475;-68
2023/02/22 02:45:11;;;;;;;69.10;22.03;;;;;;;6.12;100.00;100161.19;5062509;28;20493;-67
2023/02/22 02:47:42;;;;;;;59.33;22.20;;;;;;;6.05;100.00;100157.28;5061789;28;20483;-68
2023/02/22 02:50:12;;;;;;;57.03;20.90;;;;;;;5.98;100.00;100151.59;5063804;28;20444;-66
2023/02/22 02:52:40;;;;;;;77.10;22.37;;;;;;;5.95;100.00;100147.31;5066718;28;20471;-68
2023/02/22 02:55:10;;;;;;;59.23;21.77;;;;;;;5.93;100.00;100140.44;5072866;28;20464;-67
2023/02/22 02:57:37;;;;;;;67.63;23.47;;;;;;;5.94;100.00;100139.47;5059550;28;20462;-68
2023/02/22 03:00:21;;;;;;;77.07;24.97;;;;;;;5.87;100.00;100136.44;5070135;28;20446;-69
2023/02/22 03:02:57;;;;;;;71.27;21.70;;;;;;;5.87;100.00;100133.78;5062417;28;20497;-69
2023/02/22 03:05:51;;;;;;;67.33;22.10;;;;;;;5.85;100.00;100135.69;5061771;28;20524;-69
2023/02/22 03:08:23;;;;;;;57.73;22.07;;;;;;;5.75;100.00;100134.69;5041063;28;20459;-69
2023/02/22 03:10:56;;;;;;;52.67;21.17;;;;;;;5.57;100.00;100127.13;5081079;28;20573;-68
2023/02/22 03:13:30;;;;;;;49.33;18.30;;;;;;;5.43;100.00;100144.03;5069551;28;20538;-68
2023/02/22 03:16:05;;;;;;;48.70;19.17;;;;;;;5.32;100.00;100135.13;5062254;28;20452;-68
2023/02/22 03:18:43;;;;;;;52.30;20.00;;;;;;;5.27;100.00;100127.50;5061839;28;20491;-68
2023/02/22 03:21:16;;;;;;;71.27;25.10;;;;;;;5.42;100.00;100118.44;5055377;28;20471;-68
2023/02/22 03:23:48;;;;;;;58.00;19.50;;;;;;;5.30;100.00;100124.63;5067161;28;20514;-67
2023/02/22 03:26:18;;;;;;;56.40;20.90;;;;;;;5.25;100.00;100127.59;5081289;28;20491;-67
2023/02/22 03:28:46;;;;;;;63.37;22.47;;;;;;;5.17;100.00;100123.81;5080331;28;20460;-67
2023/02/22 03:31:16;;;;;;;56.10;20.37;;;;;;;5.11;100.00;100121.63;5080882;28;20491;-68
2023/02/22 03:33:47;;;;;;;55.07;20.90;;;;;;;5.04;100.00;100126.50;5081326;28;20433;-69
2023/02/22 03:36:17;;;;;;;54.17;20.20;;;;;;;5.01;100.00;100119.59;5081224;28;20473;-68
2023/02/22 03:38:44;;;;;;;65.00;21.73;;;;;;;5.05;100.00;100118.44;5080141;28;20519;-67
2023/02/22 03:41:12;;;;;;;61.83;21.57;;;;;;;5.00;100.00;100123.22;5080966;28;20477;-69
2023/02/22 03:43:41;;;;;;;55.43;20.03;;;;;;;4.92;100.00;100114.13;5081556;28;20484;-67
2023/02/22 03:46:10;;;;;;;66.50;21.80;;;;;;;4.94;100.00;100118.34;5080618;28;20505;-67
2023/02/22 03:48:42;;;;;;;63.23;22.23;;;;;;;4.92;100.00;100109.66;5080486;28;20453;-68
2023/02/22 03:51:13;;;;;;;56.23;20.53;;;;;;;4.93;100.00;100107.84;5080628;28;20510;-68
2023/02/22 03:53:40;;;;;;;78.10;20.90;;;;;;;4.97;100.00;100109.34;5080656;28;20500;-68
2023/02/22 03:56:09;;;;;;;116.67;24.77;;;;;;;5.02;100.00;100108.06;5080314;28;21044;-68
2023/02/22 03:58:38;;;;;;;110.47;25.03;;;;;;;5.00;100.00;100114.41;5079547;28;20460;-67
2023/02/22 04:01:05;;;;;;;140.97;28.33;;;;;;;4.93;100.00;100119.31;5072502;28;20506;-67
2023/02/22 04:03:31;;;;;;;80.93;20.37;;;;;;;4.83;100.00;100110.31;5065458;28;20515;-68
2023/02/22 04:05:58;;;;;;;62.50;21.87;;;;;;;4.74;100.00;100103.84;5066427;28;20522;-69
2023/02/22 04:08:26;;;;;;;90.50;19.20;;;;;;;4.89;100.00;100108.06;5068824;28;20461;-69
2023/02/22 04:10:53;;;;;;;72.47;23.60;;;;;;;4.82;100.00;100109.44;5074821;28;20488;-68
2023/02/22 04:13:19;;;;;;;189.37;27.30;;;;;;;4.70;100.00;100110.28;5065479;28;20868;-69
2023/02/22 04:15:46;;;;;;;50.17;18.67;;;;;;;4.67;100.00;100106.06;5061706;28;20487;-69
2023/02/22 04:18:13;;;;;;;66.57;18.73;;;;;;;4.63;100.00;100109.03;5081017;28;20448;-69
2023/02/22 04:20:40;;;;;;;69.87;19.20;;;;;;;4.53;100.00;100106.16;5078282;28;20490;-69
2023/02/22 04:23:07;;;;;;;62.13;20.70;;;;;;;4.47;100.00;100103.94;5062671;28;20517;-69
2023/02/22 04:25:35;;;;;;;39.53;16.93;;;;;;;4.41;100.00;100107.88;5063774;28;20456;-69
2023/02/22 04:28:01;;;;;;;40.90;17.10;;;;;;;4.36;100.00;100104.69;5080434;28;20449;-69
2023/02/22 04:30:28;;;;;;;38.90;16.00;;;;;;;4.28;100.00;100093.75;5079658;28;20515;-69
2023/02/22 04:32:55;;;;;;;36.13;15.47;;;;;;;4.29;100.00;100108.72;5083056;28;20476;-69
2023/02/22 04:35:22;;;;;;;47.93;17.47;;;;;;;4.25;100.00;100104.56;5082290;28;20452;-69
2023/02/22 04:37:49;;;;;;;79.20;17.90;;;;;;;4.19;100.00;100107.63;5063850;28;20886;-70
2023/02/22 04:40:16;;;;;;;62.40;16.90;;;;;;;4.07;100.00;100094.25;5065619;28;20483;-71
2023/02/22 04:42:44;;;;;;;45.17;14.53;;;;;;;4.04;100.00;100107.69;5084578;28;20503;-68
2023/02/22 04:45:11;;;;;;;43.60;15.33;;;;;;;3.99;100.00;100101.84;5083517;28;20452;-69
2023/02/22 04:47:38;;;;;;;42.80;14.93;;;;;;;3.98;100.00;100100.19;5064349;28;20524;-69
2023/02/22 04:50:05;;;;;;;63.50;16.50;;;;;;;3.91;100.00;100097.09;5064566;28;20437;-68
2023/02/22 04:52:32;;;;;;;39.47;14.10;;;;;;;3.91;100.00;100091.78;5063582;28;20473;-67
2023/02/22 04:54:59;;;;;;;49.83;14.73;;;;;;;3.91;100.00;100098.88;5063658;28;20591;-67
2023/02/22 04:57:26;;;;;;;67.77;16.70;;;;;;;3.89;100.00;100098.13;5083056;28;20571;-67
2023/02/22 04:59:54;;;;;;;107.87;18.20;;;;;;;3.71;100.00;100087.81;5083137;28;20449;-67
2023/02/22 05:02:20;;;;;;;36.67;15.20;;;;;;;3.86;100.00;100080.66;5046839;28;20571;-71
2023/02/22 05:04:47;;;;;;;46.20;15.10;;;;;;;3.80;100.00;100074.94;5043093;28;20474;-72
2023/02/22 05:07:14;;;;;;;63.87;14.67;;;;;;;3.78;100.00;100080.31;5070646;28;20507;-72
2023/02/22 05:09:40;;;;;;;97.70;17.20;;;;;;;3.69;100.00;100083.59;5068170;28;20492;-73
2023/02/22 05:12:07;;;;;;;33.47;14.10;;;;;;;3.75;100.00;100077.91;5061653;28;20491;-73
2023/02/22 05:14:34;;;;;;;28.03;13.43;;;;;;;3.71;100.00;100071.09;5056716;28;20456;-71
2023/02/22 05:17:03;;;;;;;51.43;15.10;;;;;;;3.63;100.00;100071.63;5057667;28;20481;-72
2023/02/22 05:19:30;;;;;;;40.80;13.50;;;;;;;3.54;100.00;100073.06;5058632;28;20450;-69
2023/02/22 05:21:56;;;;;;;28.63;14.63;;;;;;;3.57;100.00;100080.78;5057651;28;20512;-72
2023/02/22 05:24:23;;;;;;;30.17;14.23;;;;;;;3.47;100.00;100074.44;5052642;28;20544;-73
2023/02/22 05:26:52;;;;;;;28.60;12.97;;;;;;;3.48;100.00;100075.25;5055373;28;20481;-74
2023/02/22 05:29:19;;;;;;;28.07;14.30;;;;;;;3.62;100.00;100063.78;5062353;28;20470;-74
2023/02/22 05:31:46;;;;;;;161.43;22.83;;;;;;;3.69;100.00;100054.50;5060033;28;20542;-73
2023/02/22 05:34:14;;;;;;;98.37;23.47;;;;;;;3.57;100.00;100057.00;5057274;28;20437;-71
2023/02/22 05:36:40;;;;;;;61.07;20.73;;;;;;;3.72;100.00;100062.25;5061107;28;20479;-71
2023/02/22 05:39:07;;;;;;;28.67;15.30;;;;;;;3.69;100.00;100062.44;5048095;28;20903;-71
2023/02/22 05:41:34;;;;;;;28.97;14.80;;;;;;;3.59;100.00;100062.19;5054454;28;20485;-71
2023/02/22 05:44:01;;;;;;;40.43;19.30;;;;;;;3.55;100.00;100055.41;5060962;28;20535;-71
2023/02/22 05:46:28;;;;;;;48.03;19.93;;;;;;;3.80;100.00;100054.63;5072791;28;20862;-70
2023/02/22 05:48:55;;;;;;;32.90;16.60;;;;;;;3.80;100.00;100059.06;5082456;28;20468;-70
2023/02/22 05:51:23;;;;;;;46.20;18.83;;;;;;;3.81;100.00;100060.78;5065761;28;20492;-71
2023/02/22 05:53:50;;;;;;;29.43;16.37;;;;;;;3.68;100.00;100052.78;5072540;28;20456;-69
2023/02/22 05:56:21;;;;;;;28.30;15.20;;;;;;;3.61;100.00;100054.16;5071481;28;20479;-69
2023/02/22 05:58:47;;;;;;;32.90;14.80;;;;;;;3.52;100.00;100051.16;5077773;28;20449;-72
2023/02/22 06:01:14;;;;;;;30.47;14.20;;;;;;;3.45;100.00;100052.50;5051263;28;20935;-71
2023/02/22 06:03:41;;;;;;;50.47;21.30;;;;;;;3.53;100.00;100052.03;5055402;28;20849;-66
2023/02/22 06:06:07;;;;;;;44.53;19.03;;;;;;;3.69;100.00;100055.34;5052569;28;20500;-66
2023/02/22 06:08:36;;;;;;;37.83;15.50;;;;;;;3.73;100.00;100054.22;5062877;28;20453;-75
2023/02/22 06:11:02;;;;;;;36.57;15.13;;;;;;;3.62;100.00;100054.06;5061412;28;20485;-73
2023/02/22 06:13:29;;;;;;;31.50;15.80;;;;;;;3.67;100.00;100043.19;5061840;28;20448;-72
2023/02/22 06:15:56;;;;;;;56.03;24.80;;;;;;;3.76;100.00;100045.22;5076902;28;20493;-75
2023/02/22 06:18:25;;;;;;;58.53;24.80;;;;;;;3.91;100.00;100025.66;5070315;28;20492;-76
2023/02/22 06:20:52;;;;;;;44.80;20.07;;;;;;;3.92;100.00;100037.97;5063354;28;20556;-76
2023/02/22 06:23:18;;;;;;;78.23;26.90;;;;;;;4.08;100.00;100045.69;5075192;28;20515;-77
2023/02/22 06:25:47;;;;;;;40.77;18.97;;;;;;;4.05;100.00;100045.06;5068486;28;20832;-77
2023/02/22 06:28:14;;;;;;;37.13;16.90;;;;;;;4.01;100.00;100041.78;5057197;28;20454;-76
2023/02/22 06:30:42;;;;;;;35.20;16.60;;;;;;;3.88;100.00;100043.53;5056360;28;20473;-76
2023/02/22 06:33:09;;;;;;;75.20;25.70;;;;;;;3.96;100.00;100043.88;5055254;28;20468;-77
2023/02/22 06:35:35;;;;;;;54.87;23.57;;;;;;;4.09;100.00;100044.72;5062878;28;20515;-76
2023/02/22 06:38:02;;;;;;;50.30;22.77;;;;;;;4.19;100.00;100050.25;5053164;28;20506;-76
2023/02/22 06:40:29;;;;;;;67.20;23.87;;;;;;;4.40;100.00;100052.38;5051558;28;20465;-78
2023/02/22 06:42:58;;;;;;;75.53;25.77;;;;;;;4.59;100.00;100063.38;5048568;28;20894;-78
2023/02/22 06:45:25;;;;;;;67.33;24.20;;;;;;;4.74;100.00;100055.31;5055454;28;20475;-77
2023/02/22 06:47:51;;;;;;;72.30;26.30;;;;;;;4.88;100.00;100061.34;5054377;28;20454;-76
2023/02/22 06:50:21;;;;;;;74.00;26.27;;;;;;;5.01;100.00;100060.47;5055496;28;20459;-78
2023/02/22 06:52:48;;;;;;;73.70;26.93;;;;;;;5.21;100.00;100040.50;5056641;28;20455;-78
2023/02/22 06:55:17;;;;;;;74.30;25.90;;;;;;;5.37;100.00;100050.81;5051901;28;20487;-79
2023/02/22 06:57:44;;;;;;;81.70;27.50;;;;;;;5.44;100.00;100049.41;5053104;28;20474;-78
2023/02/22 07:00:15;;;;;;;77.80;26.63;;;;;;;5.49;100.00;100051.72;5052407;28;20507;-71
2023/02/22 07:02:42;;;;;;;65.37;24.57;;;;;;;5.68;100.00;100051.19;5057662;28;20477;-72
2023/02/22 07:05:10;;;;;;;57.40;22.93;;;;;;;5.81;100.00;100050.16;5054707;28;20455;-72
2023/02/22 07:07:37;;;;;;;108.83;27.50;;;;;;;5.75;100.00;100055.09;5056030;28;20465;-70
2023/02/22 07:10:05;;;;;;;67.20;24.07;;;;;;;5.93;100.00;100053.69;5055493;28;20974;-71
2023/02/22 07:12:31;;;;;;;145.50;34.30;;;;;;;5.77;100.00;100051.38;5059129;28;20559;-71
2023/02/22 07:14:58;;;;;;;264.33;34.40;;;;;;;5.60;100.00;100047.31;5055645;28;20506;-71
2023/02/22 07:17:26;;;;;;;72.03;24.00;;;;;;;5.88;100.00;100052.38;5053871;28;20473;-71
2023/02/22 07:19:53;;;;;;;81.13;27.80;;;;;;;6.08;100.00;100057.06;5054597;28;20499;-71
2023/02/22 07:22:19;;;;;;;76.97;27.63;;;;;;;6.15;100.00;100047.66;5052172;28;20480;-70
2023/02/22 07:24:47;;;;;;;84.57;29.77;;;;;;;6.29;100.00;100057.22;5053883;28;20561;-71
2023/02/22 07:27:13;;;;;;;69.80;26.23;;;;;;;6.38;100.00;100050.34;5056406;28;20548;-71
2023/02/22 07:29:42;;;;;;;74.60;29.20;;;;;;;6.51;100.00;100060.84;5051263;28;20503;-70
2023/02/22 07:32:09;;;;;;;62.37;24.83;;;;;;;6.54;100.00;100050.00;5050114;28;20477;-69
2023/02/22 07:34:37;;;;;;;49.97;21.70;;;;;;;7.08;100.00;100053.72;5052681;28;20527;-67
2023/02/22 07:37:03;;;;;;;88.60;27.53;;;;;;;6.76;100.00;100047.34;5057505;28;20475;-67
2023/02/22 07:39:30;;;;;;;49.57;21.57;;;;;;;7.62;100.00;100044.91;5053921;28;20469;-68
2023/02/22 07:41:58;;;;;;;58.23;22.50;;;;;;;7.88;100.00;100056.03;5051107;28;20477;-68
2023/02/22 07:44:24;;;;;;;50.90;23.10;;;;;;;8.04;100.00;100058.25;5052525;28;20485;-68
2023/02/22 07:46:51;;;;;;;64.73;26.23;;;;;;;8.01;100.00;100063.00;5052386;28;20476;-69
2023/02/22 07:49:18;;;;;;;60.13;23.43;;;;;;;8.22;100.00;100060.34;5054236;28;20453;-69
2023/02/22 07:51:46;;;;;;;108.60;29.17;;;;;;;7.53;100.00;100053.63;5050287;28;20476;-69
2023/02/22 07:54:12;;;;;;;68.20;28.17;;;;;;;7.03;100.00;100045.28;5056225;28;20480;-69
2023/02/22 07:56:45;;;;;;;90.60;30.57;;;;;;;7.01;100.00;100053.38;5052862;28;20513;-69
2023/02/22 07:59:11;;;;;;;97.30;29.60;;;;;;;7.32;100.00;100050.91;5053105;28;20506;-70
2023/02/22 08:01:38;;;;;;;89.03;30.33;;;;;;;7.24;100.00;100051.53;5060020;28;20481;-67
2023/02/22 08:04:05;;;;;;;64.80;29.57;;;;;;;7.34;100.00;100047.16;5058891;28;20524;-69
2023/02/22 08:06:31;;;;;;;82.07;31.40;;;;;;;7.56;100.00;100041.91;5058351;28;20515;-68
2023/02/22 08:08:59;;;;;;;76.43;33.10;;;;;;;7.69;100.00;100043.41;5058271;28;20461;-69
2023/02/22 08:11:27;;;;;;;73.23;31.90;;;;;;;8.01;100.00;100039.88;5054379;28;21009;-70
2023/02/22 08:13:53;;;;;;;78.30;31.13;;;;;;;9.00;100.00;100042.09;5052840;28;20537;-67
2023/02/22 08:16:20;;;;;;;87.33;32.23;;;;;;;9.19;100.00;100036.81;5056096;28;20506;-70
2023/02/22 08:18:47;;;;;;;73.43;29.97;;;;;;;9.03;100.00;100036.50;5080467;28;20452;-70
2023/02/22 08:21:14;;;;;;;71.77;32.30;;;;;;;9.21;100.00;100034.84;5080609;28;20799;-70
2023/02/22 08:23:40;;;;;;;79.87;32.60;;;;;;;9.60;100.00;100029.56;5080035;28;20488;-69
2023/02/22 08:26:14;;;;;;;77.30;36.17;;;;;;;10.11;100.00;100029.41;5079634;28;20476;-68
2023/02/22 08:28:41;;;;;;;63.70;31.83;;;;;;;11.52;100.00;100032.91;5079870;28;20544;-68
2023/02/22 08:31:08;;;;;;;70.80;35.07;;;;;;;12.23;100.00;100032.84;5079360;28;20977;-69
2023/02/22 08:33:35;;;;;;;56.70;30.13;;;;;;;11.63;100.00;100030.84;5080590;28;20432;-70
2023/02/22 08:36:02;;;;;;;44.70;27.20;;;;;;;11.47;100.00;100028.84;5080167;28;20478;-69
2023/02/22 08:38:31;;;;;;;41.07;24.37;;;;;;;11.68;100.00;100019.66;5079681;28;20456;-69
2023/02/22 08:40:58;;;;;;;40.07;24.10;;;;;;;13.22;100.00;100019.13;5079986;28;20540;-70
2023/02/22 08:43:27;;;;;;;36.40;23.90;;;;;;;12.57;100.00;100020.53;5079861;28;20452;-69
2023/02/22 08:45:54;;;;;;;32.23;21.33;;;;;;;13.06;100.00;100018.06;5079817;28;20491;-71
2023/02/22 08:48:20;;;;;;;31.73;20.73;;;;;;;13.03;100.00;100020.22;5077280;28;20445;-71
2023/02/22 08:50:47;;;;;;;35.33;20.67;;;;;;;12.24;100.00;100015.78;5076504;28;20475;-66
2023/02/22 08:53:15;;;;;;;31.37;20.97;;;;;;;12.62;100.00;100015.53;5078706;28;20449;-69
2023/02/22 08:55:42;;;;;;;34.30;22.30;;;;;;;13.96;100.00;100011.16;5078797;28;20472;-71
2023/02/22 08:58:09;;;;;;;35.57;22.37;;;;;;;13.04;100.00;100008.47;5079353;28;20488;-70
2023/02/22 09:00:39;;;;;;;32.37;22.00;;;;;;;13.96;100.00;100003.09;5078982;28;20773;-70
2023/02/22 09:03:07;;;;;;;29.17;20.60;;;;;;;13.28;100.00;100005.00;5078601;28;20433;-68
2023/02/22 09:05:33;;;;;;;35.57;23.67;;;;;;;12.48;100.00;100002.69;5072258;28;20465;-69
2023/02/22 09:08:00;;;;;;;30.90;21.13;;;;;;;13.08;100.00;100002.63;5068680;28;20487;-70
2023/02/22 09:10:29;;;;;;;32.23;21.50;;;;;;;13.12;100.00;99990.56;5078138;28;20472;-68
2023/02/22 09:12:57;;;;;;;33.50;21.50;;;;;;;12.68;100.00;99995.25;5080173;28;20464;-70
2023/02/22 09:15:24;;;;;;;37.50;22.27;;;;;;;12.41;100.00;99992.63;5051074;28;21237;-70
2023/02/22 09:17:53;;;;;;;32.03;20.50;;;;;;;12.66;100.00;99999.97;5055579;28;20531;-70
2023/02/22 09:20:21;;;;;;;31.27;21.17;;;;;;;13.30;100.00;99989.59;5082945;28;20432;-69
2023/02/22 09:22:49;;;;;;;34.50;21.83;;;;;;;12.87;100.00;99988.81;5083035;28;20551;-70
2023/02/22 09:25:17;;;;;;;29.53;20.43;;;;;;;13.85;100.00;99983.66;5080400;28;20538;-70
2023/02/22 09:27:44;;;;;;;29.97;19.60;;;;;;;15.04;100.00;99983.84;5083633;28;20440;-70
2023/02/22 09:30:17;;;;;;;23.70;17.90;;;;;;;14.09;100.00;99977.38;5082223;28;20440;-70
2023/02/22 09:32:44;;;;;;;28.83;17.93;;;;;;;14.48;100.00;99975.81;5082029;28;20509;-70
2023/02/22 09:35:12;;;;;;;28.53;18.40;;;;;;;13.55;100.00;99980.59;5082453;28;20455;-70
2023/02/22 09:37:38;;;;;;;28.13;18.57;;;;;;;13.10;100.00;99972.94;5071603;28;20473;-68
2023/02/22 09:40:08;;;;;;;24.60;17.63;;;;;;;12.99;100.00;99966.88;5060803;28;20560;-69
2023/02/22 09:42:41;;;;;;;33.17;21.23;;;;;;;12.86;100.00;99973.69;5062311;28;20449;-70
2023/02/22 09:45:12;;;;;;;29.37;20.33;;;;;;;13.15;100.00;99966.06;5061953;28;20557;-70
2023/02/22 09:47:45;;;;;;;31.33;18.23;;;;;;;14.05;100.00;99969.84;5077294;28;20449;-68
2023/02/22 09:50:15;;;;;;;22.07;16.03;;;;;;;13.16;100.00;99969.63;5066955;28;20831;-70
2023/02/22 09:52:52;;;;;;;29.03;18.53;;;;;;;13.68;100.00;99964.00;5064955;28;20445;-71
2023/02/22 09:55:27;;;;;;;25.73;16.73;;;;;;;14.25;100.00;99962.22;5041539;28;20532;-70
2023/02/22 09:57:56;;;;;;;24.17;16.27;;;;;;;14.72;100.00;99953.41;5073294;28;20466;-71
2023/02/22 10:00:28;;;;;;;20.90;15.87;;;;;;;15.27;100.00;99954.25;5081724;28;20444;-68
2023/02/22 10:03:08;;;;;;;26.57;18.50;;;;;;;14.38;100.00;99953.66;5082962;28;20452;-68
2023/02/22 10:05:38;;;;;;;22.07;16.17;;;;;;;13.92;100.00;99952.41;5052468;28;20516;-67
2023/02/22 10:08:08;;;;;;;23.20;16.20;;;;;;;14.42;100.00;99950.41;5051260;28;20463;-68
2023/02/22 10:10:38;;;;;;;22.63;17.27;;;;;;;13.59;100.00;99948.03;5087924;28;20489;-70
2023/02/22 10:13:14;;;;;;;22.23;16.27;;;;;;;13.63;100.00;99949.41;5082439;28;20476;-70
2023/02/22 10:15:47;;;;;;;24.70;17.60;;;;;;;13.90;100.00;99935.56;5068660;28;20483;-70
2023/02/22 10:18:38;;;;;;;31.00;18.40;;;;;;;14.27;100.00;99939.56;5083099;28;20444;-69
2023/02/22 10:21:13;;;;;;;26.93;18.63;;;;;;;14.61;100.00;99935.75;5081776;28;20502;-70
2023/02/22 10:23:48;;;;;;;21.90;17.83;;;;;;;14.68;100.00;99942.13;5081452;28;20964;-71
2023/02/22 10:26:17;;;;;;;25.30;18.00;;;;;;;14.04;100.00;99936.72;5079495;28;20480;-69
2023/02/22 10:28:58;;;;;;;24.07;15.80;;;;;;;14.22;100.00;99944.63;5041850;28;20472;-70
2023/02/22 10:31:27;;;;;;;18.47;15.20;;;;;;;14.57;100.00;99944.34;5040661;28;21078;-68
2023/02/22 10:33:58;;;;;;;22.20;15.53;;;;;;;14.77;100.00;99931.31;5051483;28;20472;-70
2023/02/22 10:36:26;;;;;;;19.37;13.93;;;;;;;15.03;100.00;99928.31;5081481;28;21061;-70
2023/02/22 10:38:55;;;;;;;16.63;12.73;;;;;;;14.75;100.00;99925.28;5079459;28;20448;-70
2023/02/22 10:41:28;;;;;;;16.53;12.13;;;;;;;15.34;100.00;99932.84;5080982;28;20721;-69
2023/02/22 10:43:56;;;;;;;19.40;13.53;;;;;;;15.70;100.00;99929.53;5081635;28;20437;-69
2023/02/22 10:46:24;;;;;;;17.20;12.13;;;;;;;15.51;100.00;99931.69;5081078;28;20566;-70
2023/02/22 10:48:53;;;;;;;14.77;11.00;;;;;;;15.58;100.00;99929.94;5073734;28;20457;-70
2023/02/22 10:51:20;;;;;;;16.53;11.10;;;;;;;15.77;99.88;99917.84;5062157;28;20480;-69
2023/02/22 10:53:58;;;;;;;17.53;11.03;;;;;;;15.01;100.00;99923.09;5081062;28;20441;-70
2023/02/22 10:56:27;;;;;;;16.80;11.77;;;;;;;14.59;100.00;99918.97;5068869;28;20503;-69
2023/02/22 10:58:56;;;;;;;19.47;11.63;;;;;;;14.96;100.00;99913.91;5062197;28;20630;-70
2023/02/22 11:01:28;;;;;;;17.03;11.43;;;;;;;15.72;100.00;99916.69;5080847;28;20506;-69
2023/02/22 11:03:59;;;;;;;15.57;11.60;;;;;;;15.19;100.00;99913.91;5070040;28;20476;-70
2023/02/22 11:06:26;;;;;;;15.67;11.80;;;;;;;14.23;100.00;99915.88;5061112;28;20477;-70
2023/02/22 11:09:04;;;;;;;17.20;11.00;;;;;;;15.57;98.70;99913.94;5059247;28;20875;-68
2023/02/22 11:11:32;;;;;;;13.67;10.87;;;;;;;15.96;97.47;99911.09;5060891;28;20477;-71
2023/02/22 11:14:01;;;;;;;15.60;10.73;;;;;;;15.94;94.81;99912.31;5061383;28;20469;-69
2023/02/22 11:16:30;;;;;;;14.87;10.43;;;;;;;15.65;98.57;99910.38;5041729;28;20493;-68